sensor_id;sensor_type;location;lat;lon;timestamp;temperature;humidity
36652;DHT22;53334;51.976;20.144;2022-09-13T00:00:19;24.30;52.90
36652;DHT22;53334;51.976;20.144;2022-09-13T00:02:53;24.30;53.00
36652;DHT22;53334;51.976;20.144;2022-09-13T00:05:27;24.30;53.00
36652;DHT22;53334;51.976;20.144;2022-09-13T00:08:02;24.30;53.00
36652;DHT22;53334;51.976;20.144;2022-09-13T00:10:38;24.30;53.00
36652;DHT22;53334;51.976;20.144;2022-09-13T00:13:15;24.30;53.00
36652;DHT22;53334;51.976;20.144;2022-09-13T00:15:50;24.30;53.00
36652;DHT22;53334;51.976;20.144;2022-09-13T00:18:24;24.30;52.90
36652;DHT22;53334;51.976;20.144;2022-09-13T00:21:09;24.30;52.90
36652;DHT22;53334;51.976;20.144;2022-09-13T00:23:45;24.30;52.60
36652;DHT22;53334;51.976;20.144;2022-09-13T00:26:24;24.30;52.70
36652;DHT22;53334;51.976;20.144;2022-09-13T00:29:00;24.30;52.70
36652;DHT22;53334;51.976;20.144;2022-09-13T00:31:34;24.30;52.70
36652;DHT22;53334;51.976;20.144;2022-09-13T00:34:09;24.30;52.60
36652;DHT22;53334;51.976;20.144;2022-09-13T00:36:43;24.30;52.60
36652;DHT22;53334;51.976;20.144;2022-09-13T00:39:18;24.30;52.60
36652;DHT22;53334;51.976;20.144;2022-09-13T00:41:52;24.30;52.60
36652;DHT22;53334;51.976;20.144;2022-09-13T00:44:53;24.30;52.50
36652;DHT22;53334;51.976;20.144;2022-09-13T00:47:34;24.30;52.30
36652;DHT22;53334;51.976;20.144;2022-09-13T00:50:16;24.30;52.50
36652;DHT22;53334;51.976;20.144;2022-09-13T00:52:54;24.30;52.50
36652;DHT22;53334;51.976;20.144;2022-09-13T00:55:34;24.30;52.60
36652;DHT22;53334;51.976;20.144;2022-09-13T00:58:16;24.30;52.50
36652;DHT22;53334;51.976;20.144;2022-09-13T01:01:08;24.30;52.50
36652;DHT22;53334;51.976;20.144;2022-09-13T01:03:44;24.30;52.50
36652;DHT22;53334;51.976;20.144;2022-09-13T01:06:23;24.30;52.40
36652;DHT22;53334;51.976;20.144;2022-09-13T01:09:02;24.30;52.40
36652;DHT22;53334;51.976;20.144;2022-09-13T01:11:46;24.30;52.30
36652;DHT22;53334;51.976;20.144;2022-09-13T01:14:23;24.30;52.30
36652;DHT22;53334;51.976;20.144;2022-09-13T01:16:59;24.20;52.20
36652;DHT22;53334;51.976;20.144;2022-09-13T01:19:34;24.30;52.30
36652;DHT22;53334;51.976;20.144;2022-09-13T01:22:30;24.20;52.20
36652;DHT22;53334;51.976;20.144;2022-09-13T01:25:33;24.30;52.00
36652;DHT22;53334;51.976;20.144;2022-09-13T01:28:36;24.30;51.90
36652;DHT22;53334;51.976;20.144;2022-09-13T01:31:19;24.20;51.90
36652;DHT22;53334;51.976;20.144;2022-09-13T01:34:06;24.30;52.00
36652;DHT22;53334;51.976;20.144;2022-09-13T01:39:53;24.20;51.90
36652;DHT22;53334;51.976;20.144;2022-09-13T01:42:45;24.20;51.90
36652;DHT22;53334;51.976;20.144;2022-09-13T01:45:26;24.20;51.90
36652;DHT22;53334;51.976;20.144;2022-09-13T01:48:11;24.20;51.90
36652;DHT22;53334;51.976;20.144;2022-09-13T01:50:52;24.20;51.90
36652;DHT22;53334;51.976;20.144;2022-09-13T01:53:35;24.20;51.90
36652;DHT22;53334;51.976;20.144;2022-09-13T01:56:19;24.20;51.80
36652;DHT22;53334;51.976;20.144;2022-09-13T01:58:58;24.20;51.70
36652;DHT22;53334;51.976;20.144;2022-09-13T02:01:37;24.20;51.70
36652;DHT22;53334;51.976;20.144;2022-09-13T02:04:16;24.20;52.30
36652;DHT22;53334;51.976;20.144;2022-09-13T02:06:59;24.20;51.60
36652;DHT22;53334;51.976;20.144;2022-09-13T02:09:37;24.20;51.60
36652;DHT22;53334;51.976;20.144;2022-09-13T02:12:15;24.20;51.30
36652;DHT22;53334;51.976;20.144;2022-09-13T02:14:54;24.20;51.60
36652;DHT22;53334;51.976;20.144;2022-09-13T02:17:34;24.20;51.50
36652;DHT22;53334;51.976;20.144;2022-09-13T02:20:14;24.20;51.50
36652;DHT22;53334;51.976;20.144;2022-09-13T02:22:55;24.20;51.50
36652;DHT22;53334;51.976;20.144;2022-09-13T02:25:32;24.20;51.50
36652;DHT22;53334;51.976;20.144;2022-09-13T02:28:10;24.20;51.50
36652;DHT22;53334;51.976;20.144;2022-09-13T02:30:50;24.20;51.50
36652;DHT22;53334;51.976;20.144;2022-09-13T02:33:28;24.20;51.40
36652;DHT22;53334;51.976;20.144;2022-09-13T02:36:07;24.20;51.40
36652;DHT22;53334;51.976;20.144;2022-09-13T02:38:46;24.20;51.30
36652;DHT22;53334;51.976;20.144;2022-09-13T02:41:29;24.20;51.30
36652;DHT22;53334;51.976;20.144;2022-09-13T02:44:11;24.20;51.20
36652;DHT22;53334;51.976;20.144;2022-09-13T02:47:02;24.20;51.20
36652;DHT22;53334;51.976;20.144;2022-09-13T02:49:44;24.20;51.10
36652;DHT22;53334;51.976;20.144;2022-09-13T02:52:32;24.20;51.10
36652;DHT22;53334;51.976;20.144;2022-09-13T02:55:15;24.20;51.00
36652;DHT22;53334;51.976;20.144;2022-09-13T02:57:58;24.20;51.00
36652;DHT22;53334;51.976;20.144;2022-09-13T03:00:33;24.20;51.00
36652;DHT22;53334;51.976;20.144;2022-09-13T03:03:10;24.10;51.50
36652;DHT22;53334;51.976;20.144;2022-09-13T03:05:45;24.20;50.90
36652;DHT22;53334;51.976;20.144;2022-09-13T03:08:20;24.20;50.90
36652;DHT22;53334;51.976;20.144;2022-09-13T03:11:01;24.20;50.80
36652;DHT22;53334;51.976;20.144;2022-09-13T03:13:55;24.10;50.90
36652;DHT22;53334;51.976;20.144;2022-09-13T03:16:42;24.10;50.80
36652;DHT22;53334;51.976;20.144;2022-09-13T03:19:33;24.20;50.80
36652;DHT22;53334;51.976;20.144;2022-09-13T03:25:30;24.20;50.70
36652;DHT22;53334;51.976;20.144;2022-09-13T03:28:16;24.20;50.80
36652;DHT22;53334;51.976;20.144;2022-09-13T03:30:56;24.20;50.80
36652;DHT22;53334;51.976;20.144;2022-09-13T03:33:41;24.10;50.70
36652;DHT22;53334;51.976;20.144;2022-09-13T03:36:20;24.20;50.70
36652;DHT22;53334;51.976;20.144;2022-09-13T03:39:00;24.10;50.70
36652;DHT22;53334;51.976;20.144;2022-09-13T03:41:42;24.10;50.60
36652;DHT22;53334;51.976;20.144;2022-09-13T03:44:20;24.10;50.60
36652;DHT22;53334;51.976;20.144;2022-09-13T03:46:56;24.10;50.50
36652;DHT22;53334;51.976;20.144;2022-09-13T03:49:31;24.10;50.50
36652;DHT22;53334;51.976;20.144;2022-09-13T03:52:05;24.10;50.50
36652;DHT22;53334;51.976;20.144;2022-09-13T03:54:40;24.10;51.00
36652;DHT22;53334;51.976;20.144;2022-09-13T03:57:15;24.10;50.40
36652;DHT22;53334;51.976;20.144;2022-09-13T03:59:53;24.10;50.40
36652;DHT22;53334;51.976;20.144;2022-09-13T04:02:28;24.10;50.40
36652;DHT22;53334;51.976;20.144;2022-09-13T04:05:01;24.10;50.40
36652;DHT22;53334;51.976;20.144;2022-09-13T04:07:35;24.10;50.40
36652;DHT22;53334;51.976;20.144;2022-09-13T04:10:09;24.00;50.40
36652;DHT22;53334;51.976;20.144;2022-09-13T04:12:46;24.10;50.40
36652;DHT22;53334;51.976;20.144;2022-09-13T04:15:20;24.10;50.40
36652;DHT22;53334;51.976;20.144;2022-09-13T04:17:56;24.10;50.30
36652;DHT22;53334;51.976;20.144;2022-09-13T04:20:30;24.10;50.50
36652;DHT22;53334;51.976;20.144;2022-09-13T04:23:03;24.10;51.00
36652;DHT22;53334;51.976;20.144;2022-09-13T04:25:37;24.10;51.10
36652;DHT22;53334;51.976;20.144;2022-09-13T04:28:13;24.10;50.50
36652;DHT22;53334;51.976;20.144;2022-09-13T04:30:48;24.10;50.50
36652;DHT22;53334;51.976;20.144;2022-09-13T04:33:22;24.10;50.50
36652;DHT22;53334;51.976;20.144;2022-09-13T04:35:59;24.10;50.60
36652;DHT22;53334;51.976;20.144;2022-09-13T04:38:33;24.10;50.70
36652;DHT22;53334;51.976;20.144;2022-09-13T04:41:09;24.10;51.20
36652;DHT22;53334;51.976;20.144;2022-09-13T04:43:48;24.10;51.40
36652;DHT22;53334;51.976;20.144;2022-09-13T04:46:22;24.10;51.80
36652;DHT22;53334;51.976;20.144;2022-09-13T04:48:56;24.10;51.70
36652;DHT22;53334;51.976;20.144;2022-09-13T04:51:30;24.10;51.50
36652;DHT22;53334;51.976;20.144;2022-09-13T04:54:04;24.20;51.50
36652;DHT22;53334;51.976;20.144;2022-09-13T04:56:44;24.10;51.30
36652;DHT22;53334;51.976;20.144;2022-09-13T04:59:20;24.10;51.10
36652;DHT22;53334;51.976;20.144;2022-09-13T05:01:54;24.20;51.00
36652;DHT22;53334;51.976;20.144;2022-09-13T05:04:27;24.20;50.90
36652;DHT22;53334;51.976;20.144;2022-09-13T05:07:01;24.10;50.70
36652;DHT22;53334;51.976;20.144;2022-09-13T05:09:36;24.10;50.80
36652;DHT22;53334;51.976;20.144;2022-09-13T05:12:10;24.10;50.70
36652;DHT22;53334;51.976;20.144;2022-09-13T05:14:45;24.10;50.70
36652;DHT22;53334;51.976;20.144;2022-09-13T05:17:19;24.10;50.70
36652;DHT22;53334;51.976;20.144;2022-09-13T05:19:53;24.10;50.60
36652;DHT22;53334;51.976;20.144;2022-09-13T05:22:27;24.10;50.60
36652;DHT22;53334;51.976;20.144;2022-09-13T05:25:02;24.10;50.50
36652;DHT22;53334;51.976;20.144;2022-09-13T05:27:36;24.10;50.50
36652;DHT22;53334;51.976;20.144;2022-09-13T05:30:11;24.10;50.40
36652;DHT22;53334;51.976;20.144;2022-09-13T05:32:45;24.10;50.40
36652;DHT22;53334;51.976;20.144;2022-09-13T05:35:19;24.20;50.40
36652;DHT22;53334;51.976;20.144;2022-09-13T05:37:53;24.20;50.30
36652;DHT22;53334;51.976;20.144;2022-09-13T05:40:26;24.20;50.30
36652;DHT22;53334;51.976;20.144;2022-09-13T05:43:00;24.20;50.20
36652;DHT22;53334;51.976;20.144;2022-09-13T05:45:39;24.20;50.10
36652;DHT22;53334;51.976;20.144;2022-09-13T05:48:13;24.20;50.00
36652;DHT22;53334;51.976;20.144;2022-09-13T05:50:46;24.20;50.00
36652;DHT22;53334;51.976;20.144;2022-09-13T05:53:36;24.20;49.90
36652;DHT22;53334;51.976;20.144;2022-09-13T05:56:13;24.30;50.40
36652;DHT22;53334;51.976;20.144;2022-09-13T05:58:49;24.30;50.70
36652;DHT22;53334;51.976;20.144;2022-09-13T06:01:26;24.40;50.80
36652;DHT22;53334;51.976;20.144;2022-09-13T06:04:01;24.40;50.70
36652;DHT22;53334;51.976;20.144;2022-09-13T06:06:35;24.40;50.50
36652;DHT22;53334;51.976;20.144;2022-09-13T06:09:09;24.50;50.50
36652;DHT22;53334;51.976;20.144;2022-09-13T06:11:43;24.40;50.60
36652;DHT22;53334;51.976;20.144;2022-09-13T06:14:16;24.50;50.60
36652;DHT22;53334;51.976;20.144;2022-09-13T06:16:51;24.60;50.60
36652;DHT22;53334;51.976;20.144;2022-09-13T06:19:25;24.50;50.50
36652;DHT22;53334;51.976;20.144;2022-09-13T06:21:59;24.60;50.40
36652;DHT22;53334;51.976;20.144;2022-09-13T06:24:33;24.60;50.30
36652;DHT22;53334;51.976;20.144;2022-09-13T06:27:09;24.60;50.10
36652;DHT22;53334;51.976;20.144;2022-09-13T06:29:42;24.70;50.00
36652;DHT22;53334;51.976;20.144;2022-09-13T06:32:18;24.70;49.80
36652;DHT22;53334;51.976;20.144;2022-09-13T06:34:51;24.70;49.60
36652;DHT22;53334;51.976;20.144;2022-09-13T06:37:25;24.80;49.40
36652;DHT22;53334;51.976;20.144;2022-09-13T06:39:59;24.80;49.40
36652;DHT22;53334;51.976;20.144;2022-09-13T06:42:33;24.80;45.70
36652;DHT22;53334;51.976;20.144;2022-09-13T06:45:08;24.70;43.60
36652;DHT22;53334;51.976;20.144;2022-09-13T06:47:43;24.60;43.40
36652;DHT22;53334;51.976;20.144;2022-09-13T06:50:17;24.60;43.80
36652;DHT22;53334;51.976;20.144;2022-09-13T06:52:51;24.60;43.80
36652;DHT22;53334;51.976;20.144;2022-09-13T06:55:25;24.60;43.80
36652;DHT22;53334;51.976;20.144;2022-09-13T06:57:59;24.60;43.90
36652;DHT22;53334;51.976;20.144;2022-09-13T07:00:32;24.60;44.40
36652;DHT22;53334;51.976;20.144;2022-09-13T07:03:07;24.70;44.60
36652;DHT22;53334;51.976;20.144;2022-09-13T07:05:41;24.70;44.60
36652;DHT22;53334;51.976;20.144;2022-09-13T07:08:15;24.70;44.80
36652;DHT22;53334;51.976;20.144;2022-09-13T07:10:48;24.80;44.80
36652;DHT22;53334;51.976;20.144;2022-09-13T07:13:22;24.80;44.80
36652;DHT22;53334;51.976;20.144;2022-09-13T07:16:00;24.80;44.80
36652;DHT22;53334;51.976;20.144;2022-09-13T07:18:36;24.90;44.80
36652;DHT22;53334;51.976;20.144;2022-09-13T07:21:10;24.90;44.80
36652;DHT22;53334;51.976;20.144;2022-09-13T07:23:44;25.00;45.00
36652;DHT22;53334;51.976;20.144;2022-09-13T07:26:18;25.00;44.90
36652;DHT22;53334;51.976;20.144;2022-09-13T07:28:54;25.00;44.80
36652;DHT22;53334;51.976;20.144;2022-09-13T07:31:30;25.00;44.70
36652;DHT22;53334;51.976;20.144;2022-09-13T07:34:07;25.00;44.70
36652;DHT22;53334;51.976;20.144;2022-09-13T07:36:44;25.10;44.70
36652;DHT22;53334;51.976;20.144;2022-09-13T07:39:19;25.10;44.80
36652;DHT22;53334;51.976;20.144;2022-09-13T07:41:54;25.10;44.80
36652;DHT22;53334;51.976;20.144;2022-09-13T07:44:27;25.10;44.70
36652;DHT22;53334;51.976;20.144;2022-09-13T07:47:01;25.10;44.70
36652;DHT22;53334;51.976;20.144;2022-09-13T07:49:36;25.10;44.80
36652;DHT22;53334;51.976;20.144;2022-09-13T07:52:10;25.10;44.80
36652;DHT22;53334;51.976;20.144;2022-09-13T07:54:44;25.10;44.80
36652;DHT22;53334;51.976;20.144;2022-09-13T07:57:19;25.10;44.90
36652;DHT22;53334;51.976;20.144;2022-09-13T07:59:53;25.10;45.00
36652;DHT22;53334;51.976;20.144;2022-09-13T08:02:27;25.10;45.10
36652;DHT22;53334;51.976;20.144;2022-09-13T08:05:03;25.10;45.30
36652;DHT22;53334;51.976;20.144;2022-09-13T08:07:37;25.10;45.40
36652;DHT22;53334;51.976;20.144;2022-09-13T08:10:11;25.20;45.60
36652;DHT22;53334;51.976;20.144;2022-09-13T08:12:45;25.20;45.70
36652;DHT22;53334;51.976;20.144;2022-09-13T08:15:19;25.20;45.80
36652;DHT22;53334;51.976;20.144;2022-09-13T08:17:53;25.20;45.70
36652;DHT22;53334;51.976;20.144;2022-09-13T08:20:28;25.20;45.80
36652;DHT22;53334;51.976;20.144;2022-09-13T08:23:02;25.20;45.80
36652;DHT22;53334;51.976;20.144;2022-09-13T08:25:37;25.20;45.80
36652;DHT22;53334;51.976;20.144;2022-09-13T08:28:15;25.20;45.90
36652;DHT22;53334;51.976;20.144;2022-09-13T08:30:49;25.30;46.00
36652;DHT22;53334;51.976;20.144;2022-09-13T08:33:23;25.30;46.10
36652;DHT22;53334;51.976;20.144;2022-09-13T08:35:58;25.30;46.10
36652;DHT22;53334;51.976;20.144;2022-09-13T08:38:33;25.30;46.40
36652;DHT22;53334;51.976;20.144;2022-09-13T08:41:16;25.30;46.70
36652;DHT22;53334;51.976;20.144;2022-09-13T08:43:58;25.30;46.70
36652;DHT22;53334;51.976;20.144;2022-09-13T08:46:35;25.40;46.90
36652;DHT22;53334;51.976;20.144;2022-09-13T08:49:13;25.30;47.00
36652;DHT22;53334;51.976;20.144;2022-09-13T08:51:51;25.40;47.20
36652;DHT22;53334;51.976;20.144;2022-09-13T08:54:26;25.30;47.20
36652;DHT22;53334;51.976;20.144;2022-09-13T08:57:05;25.30;47.20
36652;DHT22;53334;51.976;20.144;2022-09-13T08:59:49;25.30;47.20
36652;DHT22;53334;51.976;20.144;2022-09-13T09:02:47;25.30;47.20
36652;DHT22;53334;51.976;20.144;2022-09-13T09:05:27;25.30;47.20
36652;DHT22;53334;51.976;20.144;2022-09-13T09:08:10;25.20;47.10
36652;DHT22;53334;51.976;20.144;2022-09-13T09:10:48;25.20;47.20
36652;DHT22;53334;51.976;20.144;2022-09-13T09:13:26;25.20;47.20
36652;DHT22;53334;51.976;20.144;2022-09-13T09:16:06;25.20;47.20
36652;DHT22;53334;51.976;20.144;2022-09-13T09:18:45;25.10;47.20
36652;DHT22;53334;51.976;20.144;2022-09-13T09:21:20;25.10;47.20
36652;DHT22;53334;51.976;20.144;2022-09-13T09:23:56;25.10;47.30
36652;DHT22;53334;51.976;20.144;2022-09-13T09:26:31;25.10;47.40
36652;DHT22;53334;51.976;20.144;2022-09-13T09:29:07;25.10;47.60
36652;DHT22;53334;51.976;20.144;2022-09-13T09:31:47;25.00;47.60
36652;DHT22;53334;51.976;20.144;2022-09-13T09:34:34;25.00;47.60
36652;DHT22;53334;51.976;20.144;2022-09-13T09:37:18;25.00;47.60
36652;DHT22;53334;51.976;20.144;2022-09-13T09:39:58;25.00;47.60
36652;DHT22;53334;51.976;20.144;2022-09-13T09:42:40;25.00;47.60
36652;DHT22;53334;51.976;20.144;2022-09-13T09:45:24;25.00;47.50
36652;DHT22;53334;51.976;20.144;2022-09-13T09:48:01;24.90;47.20
36652;DHT22;53334;51.976;20.144;2022-09-13T09:50:43;24.90;47.10
36652;DHT22;53334;51.976;20.144;2022-09-13T09:53:20;24.90;47.10
36652;DHT22;53334;51.976;20.144;2022-09-13T09:56:00;24.90;47.20
36652;DHT22;53334;51.976;20.144;2022-09-13T09:58:37;24.90;47.20
36652;DHT22;53334;51.976;20.144;2022-09-13T10:01:19;24.90;47.20
36652;DHT22;53334;51.976;20.144;2022-09-13T10:04:02;24.90;47.20
36652;DHT22;53334;51.976;20.144;2022-09-13T10:06:38;24.90;47.10
36652;DHT22;53334;51.976;20.144;2022-09-13T10:09:15;24.90;47.20
36652;DHT22;53334;51.976;20.144;2022-09-13T10:11:52;24.80;47.00
36652;DHT22;53334;51.976;20.144;2022-09-13T10:14:36;24.80;47.10
36652;DHT22;53334;51.976;20.144;2022-09-13T10:17:15;24.80;47.40
36652;DHT22;53334;51.976;20.144;2022-09-13T10:19:51;24.80;47.30
36652;DHT22;53334;51.976;20.144;2022-09-13T10:22:27;24.80;47.30
36652;DHT22;53334;51.976;20.144;2022-09-13T10:25:17;24.80;47.40
36652;DHT22;53334;51.976;20.144;2022-09-13T10:27:57;24.80;47.50
36652;DHT22;53334;51.976;20.144;2022-09-13T10:30:40;24.80;47.40
36652;DHT22;53334;51.976;20.144;2022-09-13T10:33:24;24.80;47.30
36652;DHT22;53334;51.976;20.144;2022-09-13T10:36:01;24.80;47.40
36652;DHT22;53334;51.976;20.144;2022-09-13T10:38:38;24.80;47.70
36652;DHT22;53334;51.976;20.144;2022-09-13T10:41:21;24.80;47.70
36652;DHT22;53334;51.976;20.144;2022-09-13T10:43:59;24.80;47.50
36652;DHT22;53334;51.976;20.144;2022-09-13T10:46:38;24.80;47.50
36652;DHT22;53334;51.976;20.144;2022-09-13T10:49:38;24.80;47.40
36652;DHT22;53334;51.976;20.144;2022-09-13T10:52:25;24.80;47.40
36652;DHT22;53334;51.976;20.144;2022-09-13T10:55:26;24.80;47.50
36652;DHT22;53334;51.976;20.144;2022-09-13T10:58:18;24.80;47.40
36652;DHT22;53334;51.976;20.144;2022-09-13T11:04:35;24.80;47.50
36652;DHT22;53334;51.976;20.144;2022-09-13T11:07:25;24.80;47.70
36652;DHT22;53334;51.976;20.144;2022-09-13T11:10:08;24.80;47.50
36652;DHT22;53334;51.976;20.144;2022-09-13T11:12:53;24.80;47.50
36652;DHT22;53334;51.976;20.144;2022-09-13T11:15:42;24.80;47.50
36652;DHT22;53334;51.976;20.144;2022-09-13T11:18:37;24.80;47.40
36652;DHT22;53334;51.976;20.144;2022-09-13T11:21:24;24.80;47.50
36652;DHT22;53334;51.976;20.144;2022-09-13T11:24:21;24.80;47.50
36652;DHT22;53334;51.976;20.144;2022-09-13T11:27:01;24.80;47.60
36652;DHT22;53334;51.976;20.144;2022-09-13T11:29:57;24.70;47.50
36652;DHT22;53334;51.976;20.144;2022-09-13T11:32:47;24.80;48.30
36652;DHT22;53334;51.976;20.144;2022-09-13T11:35:48;24.80;48.40
36652;DHT22;53334;51.976;20.144;2022-09-13T11:38:37;24.80;48.70
36652;DHT22;53334;51.976;20.144;2022-09-13T11:41:23;24.80;49.30
36652;DHT22;53334;51.976;20.144;2022-09-13T11:44:27;24.80;49.60
36652;DHT22;53334;51.976;20.144;2022-09-13T11:47:10;24.80;50.00
36652;DHT22;53334;51.976;20.144;2022-09-13T11:53:06;24.90;49.40
36652;DHT22;53334;51.976;20.144;2022-09-13T11:55:46;24.90;49.40
36652;DHT22;53334;51.976;20.144;2022-09-13T11:58:25;24.90;49.50
36652;DHT22;53334;51.976;20.144;2022-09-13T12:01:05;24.90;49.40
36652;DHT22;53334;51.976;20.144;2022-09-13T12:03:42;24.90;49.50
36652;DHT22;53334;51.976;20.144;2022-09-13T12:06:22;24.90;49.50
36652;DHT22;53334;51.976;20.144;2022-09-13T12:09:01;24.90;49.50
36652;DHT22;53334;51.976;20.144;2022-09-13T12:11:39;24.90;49.50
36652;DHT22;53334;51.976;20.144;2022-09-13T12:14:16;24.90;49.50
36652;DHT22;53334;51.976;20.144;2022-09-13T12:16:54;24.90;49.50
36652;DHT22;53334;51.976;20.144;2022-09-13T12:19:38;24.90;49.50
36652;DHT22;53334;51.976;20.144;2022-09-13T12:22:13;24.90;49.50
36652;DHT22;53334;51.976;20.144;2022-09-13T12:24:51;24.90;49.50
36652;DHT22;53334;51.976;20.144;2022-09-13T12:27:33;24.90;49.50
36652;DHT22;53334;51.976;20.144;2022-09-13T12:30:15;24.90;49.50
36652;DHT22;53334;51.976;20.144;2022-09-13T12:32:50;24.90;49.60
36652;DHT22;53334;51.976;20.144;2022-09-13T12:35:33;24.90;49.70
36652;DHT22;53334;51.976;20.144;2022-09-13T12:41:34;24.90;49.90
36652;DHT22;53334;51.976;20.144;2022-09-13T12:44:25;24.90;50.60
36652;DHT22;53334;51.976;20.144;2022-09-13T12:50:36;24.90;50.10
36652;DHT22;53334;51.976;20.144;2022-09-13T12:53:30;24.90;50.10
36652;DHT22;53334;51.976;20.144;2022-09-13T12:56:31;24.90;50.00
36652;DHT22;53334;51.976;20.144;2022-09-13T12:59:42;24.90;49.90
36652;DHT22;53334;51.976;20.144;2022-09-13T13:02:28;24.90;49.90
36652;DHT22;53334;51.976;20.144;2022-09-13T13:05:05;24.90;50.00
36652;DHT22;53334;51.976;20.144;2022-09-13T13:07:39;24.90;50.00
36652;DHT22;53334;51.976;20.144;2022-09-13T13:10:25;24.90;50.20
36652;DHT22;53334;51.976;20.144;2022-09-13T13:13:14;24.90;50.40
36652;DHT22;53334;51.976;20.144;2022-09-13T13:15:57;24.90;50.40
36652;DHT22;53334;51.976;20.144;2022-09-13T13:18:43;24.90;50.50
36652;DHT22;53334;51.976;20.144;2022-09-13T13:21:34;24.90;50.50
36652;DHT22;53334;51.976;20.144;2022-09-13T13:24:46;24.80;51.10
36652;DHT22;53334;51.976;20.144;2022-09-13T13:30:41;24.90;50.70
36652;DHT22;53334;51.976;20.144;2022-09-13T13:33:18;24.90;50.80
36652;DHT22;53334;51.976;20.144;2022-09-13T13:35:53;24.80;50.70
36652;DHT22;53334;51.976;20.144;2022-09-13T13:38:51;24.80;50.70
36652;DHT22;53334;51.976;20.144;2022-09-13T13:41:51;24.80;50.80
36652;DHT22;53334;51.976;20.144;2022-09-13T13:45:04;24.80;51.10
36652;DHT22;53334;51.976;20.144;2022-09-13T13:48:11;24.80;51.10
36652;DHT22;53334;51.976;20.144;2022-09-13T13:51:11;24.80;51.50
36652;DHT22;53334;51.976;20.144;2022-09-13T13:53:50;24.80;51.60
36652;DHT22;53334;51.976;20.144;2022-09-13T13:56:46;24.80;51.70
36652;DHT22;53334;51.976;20.144;2022-09-13T13:59:24;24.80;51.90
36652;DHT22;53334;51.976;20.144;2022-09-13T14:01:59;24.80;51.90
36652;DHT22;53334;51.976;20.144;2022-09-13T14:05:09;24.80;51.90
36652;DHT22;53334;51.976;20.144;2022-09-13T14:11:07;24.80;52.50
36652;DHT22;53334;51.976;20.144;2022-09-13T14:13:57;24.90;52.70
36652;DHT22;53334;51.976;20.144;2022-09-13T14:16:43;24.90;52.50
36652;DHT22;53334;51.976;20.144;2022-09-13T14:19:22;24.90;52.80
36652;DHT22;53334;51.976;20.144;2022-09-13T14:22:12;24.90;53.10
36652;DHT22;53334;51.976;20.144;2022-09-13T14:24:47;24.90;53.20
36652;DHT22;53334;51.976;20.144;2022-09-13T14:27:23;24.90;53.20
36652;DHT22;53334;51.976;20.144;2022-09-13T14:29:59;24.90;53.80
36652;DHT22;53334;51.976;20.144;2022-09-13T14:32:41;25.00;54.10
36652;DHT22;53334;51.976;20.144;2022-09-13T14:35:24;24.90;53.90
36652;DHT22;53334;51.976;20.144;2022-09-13T14:38:12;25.00;54.00
36652;DHT22;53334;51.976;20.144;2022-09-13T14:40:47;25.00;54.00
36652;DHT22;53334;51.976;20.144;2022-09-13T14:43:23;25.00;53.80
36652;DHT22;53334;51.976;20.144;2022-09-13T14:46:03;25.00;53.80
36652;DHT22;53334;51.976;20.144;2022-09-13T14:48:40;25.00;53.80
36652;DHT22;53334;51.976;20.144;2022-09-13T14:51:21;25.00;54.10
36652;DHT22;53334;51.976;20.144;2022-09-13T14:54:04;25.00;53.40
36652;DHT22;53334;51.976;20.144;2022-09-13T14:56:42;25.00;53.50
36652;DHT22;53334;51.976;20.144;2022-09-13T14:59:25;25.00;53.50
36652;DHT22;53334;51.976;20.144;2022-09-13T15:02:05;25.00;53.60
36652;DHT22;53334;51.976;20.144;2022-09-13T15:04:46;25.00;53.50
36652;DHT22;53334;51.976;20.144;2022-09-13T15:07:22;25.00;53.60
36652;DHT22;53334;51.976;20.144;2022-09-13T15:10:08;25.00;53.60
36652;DHT22;53334;51.976;20.144;2022-09-13T15:12:49;25.00;53.70
36652;DHT22;53334;51.976;20.144;2022-09-13T15:15:33;25.00;54.00
36652;DHT22;53334;51.976;20.144;2022-09-13T15:18:23;25.00;54.10
36652;DHT22;53334;51.976;20.144;2022-09-13T15:20:58;25.00;54.00
36652;DHT22;53334;51.976;20.144;2022-09-13T15:23:35;25.00;54.00
36652;DHT22;53334;51.976;20.144;2022-09-13T15:26:20;24.90;54.00
36652;DHT22;53334;51.976;20.144;2022-09-13T15:28:56;25.00;54.00
36652;DHT22;53334;51.976;20.144;2022-09-13T15:31:32;25.00;54.20
36652;DHT22;53334;51.976;20.144;2022-09-13T15:34:10;25.00;54.10
36652;DHT22;53334;51.976;20.144;2022-09-13T15:36:46;25.00;54.30
36652;DHT22;53334;51.976;20.144;2022-09-13T15:39:21;25.00;54.10
36652;DHT22;53334;51.976;20.144;2022-09-13T15:41:57;25.00;53.90
36652;DHT22;53334;51.976;20.144;2022-09-13T15:44:32;25.00;53.80
36652;DHT22;53334;51.976;20.144;2022-09-13T15:47:15;24.90;53.60
36652;DHT22;53334;51.976;20.144;2022-09-13T15:49:50;24.90;53.60
36652;DHT22;53334;51.976;20.144;2022-09-13T15:52:24;24.90;53.50
36652;DHT22;53334;51.976;20.144;2022-09-13T15:54:59;24.90;53.80
36652;DHT22;53334;51.976;20.144;2022-09-13T15:57:35;24.90;53.80
36652;DHT22;53334;51.976;20.144;2022-09-13T16:00:14;24.90;54.00
36652;DHT22;53334;51.976;20.144;2022-09-13T16:02:48;24.90;54.00
36652;DHT22;53334;51.976;20.144;2022-09-13T16:05:22;24.90;54.30
36652;DHT22;53334;51.976;20.144;2022-09-13T16:07:56;24.90;54.30
36652;DHT22;53334;51.976;20.144;2022-09-13T16:10:31;24.90;54.30
36652;DHT22;53334;51.976;20.144;2022-09-13T16:13:07;24.90;54.30
36652;DHT22;53334;51.976;20.144;2022-09-13T16:15:41;24.90;54.20
36652;DHT22;53334;51.976;20.144;2022-09-13T16:18:15;24.90;54.10
36652;DHT22;53334;51.976;20.144;2022-09-13T16:20:50;24.90;54.30
36652;DHT22;53334;51.976;20.144;2022-09-13T16:23:24;24.90;54.60
36652;DHT22;53334;51.976;20.144;2022-09-13T16:25:59;24.90;55.20
36652;DHT22;53334;51.976;20.144;2022-09-13T16:28:34;24.90;54.60
36652;DHT22;53334;51.976;20.144;2022-09-13T16:31:08;24.90;54.80
36652;DHT22;53334;51.976;20.144;2022-09-13T16:33:42;24.90;55.20
36652;DHT22;53334;51.976;20.144;2022-09-13T16:36:16;24.90;55.50
36652;DHT22;53334;51.976;20.144;2022-09-13T16:38:50;24.90;55.50
36652;DHT22;53334;51.976;20.144;2022-09-13T16:41:24;25.00;55.60
36652;DHT22;53334;51.976;20.144;2022-09-13T16:44:00;24.90;55.70
36652;DHT22;53334;51.976;20.144;2022-09-13T16:46:36;25.00;55.70
36652;DHT22;53334;51.976;20.144;2022-09-13T16:49:11;25.00;55.70
36652;DHT22;53334;51.976;20.144;2022-09-13T16:51:45;25.00;55.80
36652;DHT22;53334;51.976;20.144;2022-09-13T16:54:18;25.00;55.50
36652;DHT22;53334;51.976;20.144;2022-09-13T16:56:52;25.00;55.70